Airfield :
LOGIN :

Register | Disclaimer

   EN    FR    IT 

 










Legend :    VFR   Marginal VFR   IFR   Intensive IFR   Very Intensive IFR
Visi :
Ceiling :
>= 8 km
>= 3000ft
5 to 8 km
1000 to 3000 ft
1500m to 5 km
500 to 1000 ft
800 to 1500m
200 to 500 ft
< 800m
< 200 ft
Symbols :   Thunderstorms  Fog  Heavy snow  Heavy precipitations  Wind > 20 kt
SIGMETs :     Misc.  Thunderstorms  Icing  Turbulence  Mountain Waves  Volcanic Ashes







- Airport Elevation : 83 ft
- IATA code : VOL


LGBL - Aghialos Volos

CURRENT METAR :
  • 230950Z 10006KT CAVOK 32/14 Q1004

EXPIRED METARs :
  • 230920Z 10008KT CAVOK 32/16 Q1005
  • 230850Z 07005KT CAVOK 33/15 Q1005
  • 230820Z 08005KT CAVOK 33/14 Q1005
  • 230750Z 29006KT CAVOK 34/12 Q1005
  • 230720Z 29006KT CAVOK 34/12 Q1005
  • 230650Z 31005KT CAVOK 32/11 Q1005

TAF TAF LGBL
Valid from the 23 at 09:00 until the 23 at 18:00 UTC


230800Z 2309/2318 26010KT 9999 FEW030 SCT080
TEMPO 2310/2315 26012G22KT
PROB30
TEMPO 2312/2315 6000 RA FEW030 BKN080
No reported NOTAMs for that airfield.



MET'MAP, your aeronautical weather chart ! - Copyright ORBIFLY December 2007 - Disclaimer

ORBIFLY MET'MAP TEAM :

Programming & Development : Alexandra Zaïnal
Concept & Development : Baudouin d'Aumeries
Co-Development & Prog : Marc-Olivier Méhu
Technical & hardware support : Manuel Goepfert

Contact : metmap@orbifly.com




SOURCES & CREDITS :

   NOAA